createdAt,value
2022-10-22T00:01:40.092Z,99496.69
2022-10-22T00:04:06.826Z,99503.03
2022-10-22T00:06:33.471Z,99503.19
2022-10-22T00:09:00.565Z,99505.66
2022-10-22T00:11:27.287Z,99495.91
2022-10-22T00:13:53.959Z,99483.97
2022-10-22T00:16:20.471Z,99478.06
2022-10-22T00:18:47.113Z,99475.34
2022-10-22T00:21:14.077Z,99471.84
2022-10-22T00:23:42.540Z,99469.78
2022-10-22T00:26:10.197Z,99477.84
2022-10-22T00:28:36.952Z,99477.66
2022-10-22T00:31:03.684Z,99465.53
2022-10-22T00:33:30.727Z,99469.13
2022-10-22T00:35:57.319Z,99460.13
2022-10-22T00:38:23.958Z,99452.03
2022-10-22T00:40:50.560Z,99450.66
2022-10-22T00:43:18.834Z,99455.56
2022-10-22T00:45:45.751Z,99458.94
2022-10-22T00:48:28.412Z,99466.59
2022-10-22T00:50:58.853Z,99466.66
2022-10-22T00:53:46.171Z,99468.06
2022-10-22T00:56:13.075Z,99449.72
2022-10-22T00:58:44.128Z,99458.94
2022-10-22T01:01:14.862Z,99459.28
2022-10-22T01:03:41.660Z,99460.13
2022-10-22T01:06:08.270Z,99463.84
2022-10-22T01:08:44.515Z,99455.56
2022-10-22T01:11:26.110Z,99467.03
2022-10-22T01:14:12.174Z,99464.50
2022-10-22T01:16:52.950Z,99459.69
2022-10-22T01:20:04.230Z,99468.81
2022-10-22T01:22:34.756Z,99465.81
2022-10-22T01:25:10.706Z,99465.22
2022-10-22T01:27:55.809Z,99477.22
2022-10-22T01:30:22.732Z,99471.66
2022-10-22T01:32:51.847Z,99476.19
2022-10-22T01:35:23.890Z,99481.56
2022-10-22T01:37:58.365Z,99474.56
2022-10-22T01:40:26.405Z,99476.19
2022-10-22T01:43:01.058Z,99477.28
2022-10-22T01:45:30.490Z,99476.94
2022-10-22T01:48:13.336Z,99470.09
2022-10-22T01:50:39.837Z,99461.53
2022-10-22T01:53:29.752Z,99460.84
2022-10-22T01:56:02.108Z,99462.19
2022-10-22T01:58:38.294Z,99471.53
2022-10-22T02:01:48.497Z,99462.78
2022-10-22T02:04:14.979Z,99461.75
2022-10-22T02:06:42.757Z,99460.75
2022-10-22T02:09:10.039Z,99479.13
2022-10-22T02:11:36.772Z,99473.56
2022-10-22T02:14:04.519Z,99464.44
2022-10-22T02:16:37.702Z,99460.25
2022-10-22T02:19:11.259Z,99458.78
2022-10-22T02:21:38.039Z,99459.13
2022-10-22T02:24:05.028Z,99458.97
2022-10-22T02:26:35.254Z,99447.91
2022-10-22T02:29:19.121Z,99443.59
2022-10-22T02:31:47.020Z,99446.22
2022-10-22T02:34:17.641Z,99447.78
2022-10-22T02:36:48.064Z,99451.22
2022-10-22T02:39:18.060Z,99444.53
2022-10-22T02:41:44.559Z,99454.31
2022-10-22T02:44:11.431Z,99449.34
2022-10-22T02:46:38.898Z,99438.91
2022-10-22T02:49:06.059Z,99441.78
2022-10-22T02:51:32.575Z,99434.00
2022-10-22T02:53:59.066Z,99425.59
2022-10-22T02:56:25.628Z,99433.50
2022-10-22T02:58:52.121Z,99427.75
2022-10-22T03:01:18.694Z,99431.41
2022-10-22T03:03:45.243Z,99434.34
2022-10-22T03:06:11.832Z,99439.75
2022-10-22T03:08:38.438Z,99447.16
2022-10-22T03:11:05.002Z,99444.44
2022-10-22T03:13:31.464Z,99439.38
2022-10-22T03:15:58.221Z,99442.59
2022-10-22T03:18:24.730Z,99436.38
2022-10-22T03:20:51.269Z,99439.56
2022-10-22T03:23:19.776Z,99443.44
2022-10-22T03:25:47.181Z,99434.34
2022-10-22T03:28:15.299Z,99426.13
2022-10-22T03:30:41.820Z,99434.19
2022-10-22T03:33:08.370Z,99427.19
2022-10-22T03:35:40.848Z,99422.16
2022-10-22T03:38:07.310Z,99430.34
2022-10-22T03:40:33.943Z,99444.63
2022-10-22T03:43:00.908Z,99458.78
2022-10-22T03:45:27.450Z,99442.47
2022-10-22T03:47:54.072Z,99443.66
2022-10-22T03:50:20.614Z,99447.84
2022-10-22T03:52:47.308Z,99458.66
2022-10-22T03:55:13.817Z,99457.97
2022-10-22T03:57:40.779Z,99451.22
2022-10-22T04:00:09.227Z,99462.19
2022-10-22T04:02:35.724Z,99448.50
2022-10-22T04:05:02.701Z,99452.56
2022-10-22T04:10:24.670Z,99452.31
2022-10-22T04:12:51.383Z,99446.91
2022-10-22T04:15:18.189Z,99436.97
2022-10-22T04:17:44.655Z,99445.31
2022-10-22T04:20:11.586Z,99440.09
2022-10-22T04:22:38.151Z,99450.56
2022-10-22T04:25:05.559Z,99454.59
2022-10-22T04:27:33.479Z,99446.81
2022-10-22T04:30:00.059Z,99460.47
2022-10-22T04:32:27.582Z,99456.75
2022-10-22T04:34:54.120Z,99458.94
2022-10-22T04:37:20.646Z,99463.00
2022-10-22T04:39:47.139Z,99470.25
2022-10-22T04:42:13.986Z,99461.47
2022-10-22T04:44:40.542Z,99470.06
2022-10-22T04:47:07.041Z,99461.84
2022-10-22T04:49:33.633Z,99456.97
2022-10-22T04:52:00.237Z,99461.06
2022-10-22T04:54:29.097Z,99449.44
2022-10-22T04:56:58.721Z,99455.50
2022-10-22T04:59:25.285Z,99442.19
2022-10-22T05:01:51.885Z,99444.91
2022-10-22T05:04:19.737Z,99445.22
2022-10-22T05:06:46.582Z,99435.28
2022-10-22T05:09:15.625Z,99439.50
2022-10-22T05:11:45.450Z,99443.13
2022-10-22T05:14:12.584Z,99452.75
2022-10-22T05:16:39.203Z,99446.00
2022-10-22T05:19:06.741Z,99448.59
2022-10-22T05:21:34.116Z,99458.16
2022-10-22T05:24:00.932Z,99461.41
2022-10-22T05:26:28.820Z,99472.38
2022-10-22T05:28:55.663Z,99474.38
2022-10-22T05:31:22.262Z,99471.84
2022-10-22T05:33:49.419Z,99481.13
2022-10-22T05:36:19.387Z,99489.19
2022-10-22T05:38:46.652Z,99483.34
2022-10-22T05:41:15.934Z,99488.84
2022-10-22T05:43:42.519Z,99504.13
2022-10-22T05:46:12.007Z,99490.13
2022-10-22T05:48:38.996Z,99486.56
2022-10-22T05:51:12.912Z,99492.47
2022-10-22T05:53:42.546Z,99498.06
2022-10-22T05:56:14.174Z,99495.06
2022-10-22T05:58:41.344Z,99503.81
2022-10-22T06:01:27.602Z,99511.88
2022-10-22T06:03:56.236Z,99523.25
2022-10-22T06:06:29.774Z,99519.00
2022-10-22T06:08:59.879Z,99517.31
2022-10-22T06:11:28.842Z,99531.50
2022-10-22T06:13:57.738Z,99535.34
2022-10-22T06:16:24.438Z,99537.53
2022-10-22T06:18:51.066Z,99539.91
2022-10-22T06:21:17.657Z,99534.25
2022-10-22T06:23:44.273Z,99534.97
2022-10-22T06:26:11.387Z,99536.13
2022-10-22T06:28:38.296Z,99536.91
2022-10-22T06:31:05.870Z,99535.09
2022-10-22T06:33:34.175Z,99541.50
2022-10-22T06:36:14.306Z,99546.38
2022-10-22T06:38:41.224Z,99559.34
2022-10-22T06:41:13.331Z,99553.44
2022-10-22T06:43:40.980Z,99559.47
2022-10-22T06:46:14.784Z,99569.03
2022-10-22T06:48:48.866Z,99578.34
2022-10-22T06:51:15.417Z,99582.44
2022-10-22T06:53:41.923Z,99582.13
2022-10-22T06:56:10.611Z,99575.41
2022-10-22T06:58:37.079Z,99577.91
2022-10-22T07:01:06.342Z,99584.00
2022-10-22T07:03:33.019Z,99581.78
2022-10-22T07:06:01.374Z,99585.50
2022-10-22T07:08:28.622Z,99599.66
2022-10-22T07:10:55.811Z,99590.31
2022-10-22T07:13:22.833Z,99595.22
2022-10-22T07:15:54.788Z,99609.94
2022-10-22T07:18:22.282Z,99605.41
2022-10-22T07:20:49.458Z,99611.97
2022-10-22T07:23:16.496Z,99620.41
2022-10-22T07:25:43.478Z,99619.56
2022-10-22T07:28:10.249Z,99622.75
2022-10-22T07:30:37.913Z,99625.28
2022-10-22T07:33:04.699Z,99634.75
2022-10-22T07:35:31.853Z,99634.06
2022-10-22T07:37:58.352Z,99637.94
2022-10-22T07:40:25.025Z,99637.97
2022-10-22T07:42:51.642Z,99640.81
2022-10-22T07:45:18.249Z,99651.47
2022-10-22T07:47:44.780Z,99648.09
2022-10-22T07:50:11.784Z,99657.75
2022-10-22T07:52:38.615Z,99657.53
2022-10-22T07:55:05.986Z,99657.03
2022-10-22T07:57:32.896Z,99669.00
2022-10-22T07:59:59.944Z,99663.44
2022-10-22T08:02:26.449Z,99656.69
2022-10-22T08:04:53.165Z,99664.63
2022-10-22T08:07:19.753Z,99675.63
2022-10-22T08:09:46.436Z,99674.97
2022-10-22T08:12:13.587Z,99672.78
2022-10-22T08:14:40.077Z,99671.09
2022-10-22T08:17:06.834Z,99672.66
2022-10-22T08:19:35.223Z,99671.81
2022-10-22T08:22:02.172Z,99661.50
2022-10-22T08:24:28.907Z,99666.56
2022-10-22T08:26:55.922Z,99648.66
2022-10-22T08:29:26.740Z,99651.34
2022-10-22T08:31:54.013Z,99652.66
2022-10-22T08:34:20.548Z,99654.16
2022-10-22T08:36:47.085Z,99647.72
2022-10-22T08:39:13.976Z,99643.41
2022-10-22T08:41:56.724Z,99635.28
2022-10-22T08:44:44.501Z,99638.41
2022-10-22T08:47:20.062Z,99636.66
2022-10-22T08:49:49.178Z,99628.91
2022-10-22T08:52:17.564Z,99626.16
2022-10-22T08:54:54.324Z,99639.69
2022-10-22T08:57:33.031Z,99634.06
2022-10-22T09:00:11.561Z,99641.63
2022-10-22T09:02:41.526Z,99632.03
2022-10-22T09:05:32.385Z,99637.94
2022-10-22T09:07:58.951Z,99645.06
2022-10-22T09:10:28.373Z,99646.63
2022-10-22T09:12:54.934Z,99638.03
2022-10-22T09:15:21.685Z,99649.50
2022-10-22T09:18:27.887Z,99657.75
2022-10-22T09:21:02.687Z,99662.31
2022-10-22T09:23:56.449Z,99658.91
2022-10-22T09:26:22.954Z,99662.06
2022-10-22T09:28:51.507Z,99658.03
2022-10-22T09:31:18.279Z,99663.63
2022-10-22T09:33:47.917Z,99662.06
2022-10-22T09:36:20.957Z,99661.00
2022-10-22T09:38:50.798Z,99668.88
2022-10-22T09:41:18.978Z,99662.78
2022-10-22T09:43:49.191Z,99666.91
2022-10-22T09:46:18.386Z,99671.34
2022-10-22T09:48:50.517Z,99679.63
2022-10-22T09:51:24.468Z,99682.72
2022-10-22T09:54:00.094Z,99694.72
2022-10-22T09:56:29.050Z,99704.06
2022-10-22T09:58:57.471Z,99713.97
2022-10-22T10:01:32.931Z,99723.63
2022-10-22T10:04:09.340Z,99741.78
2022-10-22T10:06:39.169Z,99743.31
2022-10-22T10:09:15.824Z,99748.59
2022-10-22T10:11:54.467Z,99759.50
2022-10-22T10:14:43.214Z,99752.84
2022-10-22T10:17:21.608Z,99761.03
2022-10-22T10:20:02.911Z,99758.72
2022-10-22T10:22:57.938Z,99761.94
2022-10-22T10:25:40.584Z,99759.69
2022-10-22T10:28:13.243Z,99768.69
2022-10-22T10:30:48.170Z,99763.22
2022-10-22T10:33:24.241Z,99758.72
2022-10-22T10:36:12.431Z,99758.28
2022-10-22T10:39:03.711Z,99770.03
2022-10-22T10:41:55.067Z,99756.41
2022-10-22T10:44:29.181Z,99758.03
2022-10-22T10:47:33.582Z,99762.69
2022-10-22T10:50:17.464Z,99773.50
2022-10-22T10:53:10.502Z,99760.06
2022-10-22T10:56:03.504Z,99771.91
2022-10-22T10:58:42.708Z,99784.50
2022-10-22T11:01:27.319Z,99786.34
2022-10-22T11:04:23.288Z,99790.75
2022-10-22T11:06:52.685Z,99787.28
2022-10-22T11:09:25.203Z,99786.56
2022-10-22T11:11:55.754Z,99788.53
2022-10-22T11:14:30.077Z,99785.50
2022-10-22T11:17:06.007Z,99763.72
2022-10-22T11:19:50.974Z,99761.00
2022-10-22T11:22:27.102Z,99752.75
2022-10-22T11:25:01.735Z,99748.91
2022-10-22T11:27:42.346Z,99748.53
2022-10-22T11:30:17.810Z,99751.81
2022-10-22T11:32:48.565Z,99751.06
2022-10-22T11:35:21.144Z,99744.31
2022-10-22T11:37:51.838Z,99743.13
2022-10-22T11:40:30.819Z,99742.72
2022-10-22T11:43:00.555Z,99751.28
2022-10-22T11:45:39.392Z,99745.41
2022-10-22T11:48:18.892Z,99748.56
2022-10-22T11:50:53.057Z,99748.97
2022-10-22T11:53:26.011Z,99748.97
2022-10-22T11:55:55.522Z,99747.38
2022-10-22T11:58:29.217Z,99743.66
2022-10-22T12:01:03.079Z,99742.00
2022-10-22T12:03:32.652Z,99743.78
2022-10-22T12:06:29.168Z,99744.22
2022-10-22T12:09:04.397Z,99742.78
2022-10-22T12:11:47.748Z,99750.31
2022-10-22T12:14:32.145Z,99752.63
2022-10-22T12:17:11.856Z,99756.16
2022-10-22T12:19:41.217Z,99759.03
2022-10-22T12:22:07.910Z,99772.81
2022-10-22T12:24:38.256Z,99769.88
2022-10-22T12:27:33.320Z,99780.31
2022-10-22T12:30:11.054Z,99774.34
2022-10-22T12:32:41.355Z,99773.50
2022-10-22T12:35:14.883Z,99771.75
2022-10-22T12:37:42.036Z,99765.75
2022-10-22T12:40:18.819Z,99759.44
2022-10-22T12:42:53.390Z,99760.97
2022-10-22T12:45:23.352Z,99756.28
2022-10-22T12:47:51.830Z,99760.66
2022-10-22T12:50:20.983Z,99762.91
2022-10-22T12:52:48.660Z,99758.72
2022-10-22T12:55:19.876Z,99764.84
2022-10-22T12:57:48.288Z,99759.31
2022-10-22T13:00:26.969Z,99759.66
2022-10-22T13:02:54.494Z,99763.72
2022-10-22T13:05:27.989Z,99772.50
2022-10-22T13:08:08.782Z,99763.81
2022-10-22T13:10:37.999Z,99764.81
2022-10-22T13:13:06.937Z,99768.16
2022-10-22T13:15:37.802Z,99769.50
2022-10-22T13:18:18.594Z,99775.94
2022-10-22T13:20:53.780Z,99771.03
2022-10-22T13:23:25.565Z,99772.13
2022-10-22T13:25:59.451Z,99780.13
2022-10-22T13:28:26.586Z,99781.75
2022-10-22T13:30:55.578Z,99782.28
2022-10-22T13:33:26.448Z,99779.53
2022-10-22T13:35:53.469Z,99779.78
2022-10-22T13:38:22.790Z,99772.81
2022-10-22T13:40:50.165Z,99788.81
2022-10-22T13:43:17.754Z,99783.22
2022-10-22T13:45:44.644Z,99780.56
2022-10-22T13:48:21.757Z,99783.41
2022-10-22T13:50:51.830Z,99789.09
2022-10-22T13:53:21.106Z,99786.50
2022-10-22T13:55:47.753Z,99790.06
2022-10-22T13:58:19.212Z,99789.25
2022-10-22T14:00:50.296Z,99793.88
2022-10-22T14:03:19.571Z,99793.75
2022-10-22T14:05:47.308Z,99796.75
2022-10-22T14:08:19.025Z,99788.75
2022-10-22T14:10:45.815Z,99791.28
2022-10-22T14:13:16.649Z,99792.47
2022-10-22T14:15:45.359Z,99789.34
2022-10-22T14:18:15.925Z,99795.19
2022-10-22T14:20:42.802Z,99792.22
2022-10-22T14:23:20.472Z,99787.53
2022-10-22T14:25:47.161Z,99786.47
2022-10-22T14:28:14.026Z,99792.03
2022-10-22T14:30:40.877Z,99793.06
2022-10-22T14:33:15.055Z,99788.03
2022-10-22T14:35:41.649Z,99794.06
2022-10-22T14:38:08.257Z,99790.88
2022-10-22T14:40:34.839Z,99800.69
2022-10-22T14:43:01.441Z,99796.75
2022-10-22T14:45:27.925Z,99797.34
2022-10-22T14:47:57.475Z,99795.81
2022-10-22T14:50:25.180Z,99803.19
2022-10-22T14:52:51.955Z,99803.81
2022-10-22T14:55:19.884Z,99811.69
2022-10-22T14:57:46.377Z,99820.34
2022-10-22T15:00:16.774Z,99818.66
2022-10-22T15:02:43.995Z,99819.13
2022-10-22T15:05:11.031Z,99828.38
2022-10-22T15:07:37.891Z,99824.25
2022-10-22T15:10:05.325Z,99828.44
2022-10-22T15:12:32.536Z,99824.22
2022-10-22T15:14:59.017Z,99823.09
2022-10-22T15:17:25.519Z,99822.94
2022-10-22T15:19:53.425Z,99832.44
2022-10-22T15:22:19.953Z,99835.50
2022-10-22T15:24:48.492Z,99825.72
2022-10-22T15:27:15.622Z,99840.75
2022-10-22T15:29:42.566Z,99835.84
2022-10-22T15:32:12.515Z,99845.97
2022-10-22T15:34:39.998Z,99846.72
2022-10-22T15:37:09.472Z,99845.56
2022-10-22T15:39:39.517Z,99853.34
2022-10-22T15:42:06.260Z,99858.81
2022-10-22T15:44:32.824Z,99858.63
2022-10-22T15:46:59.506Z,99866.84
2022-10-22T15:49:27.905Z,99866.44
2022-10-22T15:51:55.183Z,99867.06
2022-10-22T15:54:24.831Z,99866.88
2022-10-22T15:56:51.606Z,99879.03
2022-10-22T15:59:18.664Z,99879.03
2022-10-22T16:01:45.370Z,99879.84
2022-10-22T16:04:11.946Z,99878.56
2022-10-22T16:06:43.754Z,99875.97
2022-10-22T16:09:13.859Z,99880.28
2022-10-22T16:11:40.907Z,99882.09
2022-10-22T16:14:08.301Z,99879.50
2022-10-22T16:16:36.174Z,99888.44
2022-10-22T16:19:03.554Z,99890.59
2022-10-22T16:21:30.210Z,99882.03
2022-10-22T16:23:56.927Z,99888.63
2022-10-22T16:26:23.465Z,99884.47
2022-10-22T16:28:50.225Z,99888.53
2022-10-22T16:31:18.120Z,99895.72
2022-10-22T16:33:49.233Z,99897.25
2022-10-22T16:36:19.380Z,99890.38
2022-10-22T16:38:47.095Z,99900.25
2022-10-22T16:41:14.687Z,99905.22
2022-10-22T16:43:42.525Z,99900.38
2022-10-22T16:46:09.270Z,99903.19
2022-10-22T16:48:37.800Z,99905.03
2022-10-22T16:51:09.376Z,99906.81
2022-10-22T16:53:36.663Z,99908.50
2022-10-22T16:56:03.545Z,99908.50
2022-10-22T16:58:30.210Z,99901.56
2022-10-22T17:00:56.704Z,99907.19
2022-10-22T17:03:25.967Z,99906.59
2022-10-22T17:05:54.254Z,99913.63
2022-10-22T17:08:20.721Z,99913.09
2022-10-22T17:10:47.357Z,99911.50
2022-10-22T17:13:14.236Z,99912.22
2022-10-22T17:15:40.826Z,99913.25
2022-10-22T17:18:07.442Z,99921.06
2022-10-22T17:20:34.032Z,99922.09
2022-10-22T17:23:00.495Z,99924.88
2022-10-22T17:25:42.622Z,99923.69
2022-10-22T17:28:13.150Z,99931.84
2022-10-22T17:30:40.851Z,99927.16
2022-10-22T17:33:08.409Z,99927.91
2022-10-22T17:35:42.549Z,99944.50
2022-10-22T17:38:09.136Z,99948.75
2022-10-22T17:40:35.597Z,99948.50
2022-10-22T17:43:02.063Z,99949.75
2022-10-22T17:45:28.616Z,99952.25
2022-10-22T17:47:57.203Z,99947.06
2022-10-22T17:50:23.897Z,99948.94
2022-10-22T17:52:50.613Z,99960.44
2022-10-22T17:55:17.183Z,99952.38
2022-10-22T17:57:43.810Z,99953.59
2022-10-22T18:00:10.981Z,99964.56
2022-10-22T18:02:37.808Z,99963.56
2022-10-22T18:05:04.542Z,99963.91
2022-10-22T18:07:31.095Z,99963.97
2022-10-22T18:09:57.914Z,99964.66
2022-10-22T18:12:24.468Z,99969.03
2022-10-22T18:14:51.016Z,99967.34
2022-10-22T18:17:17.497Z,99965.00
2022-10-22T18:19:44.047Z,99978.03
2022-10-22T18:22:10.578Z,99968.22
2022-10-22T18:24:37.211Z,99970.59
2022-10-22T18:27:04.169Z,99971.78
2022-10-22T18:29:30.690Z,99971.94
2022-10-22T18:31:57.196Z,99964.03
2022-10-22T18:34:24.104Z,99968.94
2022-10-22T18:36:50.726Z,99972.66
2022-10-22T18:39:17.734Z,99968.41
2022-10-22T18:41:44.361Z,99969.41
2022-10-22T18:44:13.783Z,99968.22
2022-10-22T18:46:40.499Z,99972.28
2022-10-22T18:49:07.297Z,99963.69
2022-10-22T18:51:34.860Z,99956.28
2022-10-22T18:54:05.704Z,99956.63
2022-10-22T18:56:44.918Z,99961.31
2022-10-22T18:59:22.990Z,99966.06
2022-10-22T19:01:51.372Z,99959.63
2022-10-22T19:04:17.861Z,99972.44
2022-10-22T19:06:45.765Z,99966.03
2022-10-22T19:09:14.439Z,99958.94
2022-10-22T19:11:41.433Z,99967.72
2022-10-22T19:14:08.005Z,99957.09
2022-10-22T19:16:35.192Z,99963.19
2022-10-22T19:19:06.739Z,99964.69
2022-10-22T19:21:33.218Z,99963.19
2022-10-22T19:24:00.577Z,99962.66
2022-10-22T19:26:28.417Z,99961.81
2022-10-22T19:28:55.570Z,99967.38
2022-10-22T19:31:24.359Z,99963.50
2022-10-22T19:33:51.860Z,99963.84
2022-10-22T19:36:19.159Z,99977.16
2022-10-22T19:38:47.739Z,99973.47
2022-10-22T19:41:17.255Z,99972.28
2022-10-22T19:43:45.465Z,99976.19
2022-10-22T19:46:12.288Z,99981.75
2022-10-22T19:48:38.962Z,99981.25
2022-10-22T19:51:09.284Z,99984.44
2022-10-22T19:53:37.967Z,99983.41
2022-10-22T19:56:06.528Z,99987.81
2022-10-22T19:58:33.222Z,99987.47
2022-10-22T20:01:11.603Z,99990.00
2022-10-22T20:03:38.809Z,99995.75
2022-10-22T20:06:07.458Z,99994.09
2022-10-22T20:08:37.750Z,99993.25
2022-10-22T20:11:06.865Z,99989.84
2022-10-22T20:13:34.807Z,99994.59
2022-10-22T20:16:01.684Z,99997.44
2022-10-22T20:18:28.212Z,100002.84
2022-10-22T20:20:54.878Z,99996.75
2022-10-22T20:23:21.663Z,100001.34
2022-10-22T20:25:48.234Z,100011.94
2022-10-22T20:28:15.355Z,100018.03
2022-10-22T20:30:46.471Z,100017.38
2022-10-22T20:33:13.227Z,100017.72
2022-10-22T20:35:39.677Z,100019.41
2022-10-22T20:38:07.389Z,100021.59
2022-10-22T20:40:34.250Z,100033.41
2022-10-22T20:43:01.102Z,100039.78
2022-10-22T20:45:27.946Z,100039.28
2022-10-22T20:48:02.029Z,100030.53
2022-10-22T20:50:31.468Z,100027.66
2022-10-22T20:52:58.731Z,100028.31
2022-10-22T20:55:27.360Z,100033.56
2022-10-22T20:57:55.185Z,100027.66
2022-10-22T21:00:21.690Z,100034.72
2022-10-22T21:02:48.829Z,100034.88
2022-10-22T21:05:15.918Z,100031.81
2022-10-22T21:07:42.712Z,100033.81
2022-10-22T21:10:09.719Z,100022.19
2022-10-22T21:12:42.329Z,100036.50
2022-10-22T21:15:12.550Z,100034.09
2022-10-22T21:17:40.700Z,100026.53
2022-10-22T21:22:41.561Z,100030.72
2022-10-22T21:25:09.123Z,100035.84
2022-10-22T21:27:36.673Z,100025.19
2022-10-22T21:30:03.786Z,100043.94
2022-10-22T21:32:30.275Z,100037.50
2022-10-22T21:34:56.872Z,100028.88
2022-10-22T21:37:23.434Z,100040.50
2022-10-22T21:39:50.483Z,100043.34
2022-10-22T21:42:17.189Z,100047.59
2022-10-22T21:44:43.849Z,100050.97
2022-10-22T21:47:10.586Z,100043.59
2022-10-22T21:49:38.093Z,100047.75
2022-10-22T21:52:06.940Z,100046.56
2022-10-22T21:54:36.093Z,100052.63
2022-10-22T21:57:03.906Z,100058.66
2022-10-22T21:59:32.204Z,100054.31
2022-10-22T22:02:03.457Z,100051.25
2022-10-22T22:04:32.656Z,100043.19
2022-10-22T22:06:59.488Z,100048.28
2022-10-22T22:09:26.334Z,100052.09
2022-10-22T22:11:53.683Z,100041.94
2022-10-22T22:14:20.547Z,100055.75
2022-10-22T22:16:47.081Z,100053.78
2022-10-22T22:19:13.823Z,100045.81
2022-10-22T22:21:41.460Z,100048.66
2022-10-22T22:24:09.032Z,100043.97
2022-10-22T22:26:36.187Z,100043.88
2022-10-22T22:29:02.816Z,100045.16
2022-10-22T22:31:31.845Z,100045.50
2022-10-22T22:34:10.518Z,100045.63
2022-10-22T22:36:39.762Z,100046.16
2022-10-22T22:39:07.754Z,100046.81
2022-10-22T22:41:34.619Z,100050.41
2022-10-22T22:44:01.150Z,100052.88
2022-10-22T22:46:27.800Z,100047.28
2022-10-22T22:48:54.772Z,100046.03
2022-10-22T22:51:21.314Z,100054.22
2022-10-22T22:53:47.934Z,100063.00
2022-10-22T22:56:17.064Z,100052.66
2022-10-22T22:58:43.891Z,100048.22
2022-10-22T23:01:17.023Z,100056.41
2022-10-22T23:03:45.722Z,100061.91
2022-10-22T23:06:12.843Z,100056.19
2022-10-22T23:08:39.875Z,100053.13
2022-10-22T23:11:12.611Z,100047.28
2022-10-22T23:13:39.843Z,100042.56
2022-10-22T23:16:09.120Z,100050.16
2022-10-22T23:18:36.489Z,100045.88
2022-10-22T23:21:07.324Z,100047.09
2022-10-22T23:23:34.448Z,100038.84
2022-10-22T23:26:02.602Z,100043.16
2022-10-22T23:28:29.387Z,100048.47
2022-10-22T23:30:56.269Z,100046.78
2022-10-22T23:33:23.379Z,100046.16
2022-10-22T23:35:50.736Z,100047.72
2022-10-22T23:38:17.499Z,100045.88
2022-10-22T23:40:44.123Z,100045.31
2022-10-22T23:43:11.011Z,100049.28
2022-10-22T23:45:37.770Z,100051.44
2022-10-22T23:48:04.409Z,100049.66
2022-10-22T23:50:30.952Z,100061.56
2022-10-22T23:52:57.503Z,100054.84
2022-10-22T23:55:24.223Z,100059.94
2022-10-22T23:57:50.685Z,100065.63
